Perth Airport Weather

Latest weather

Perth Scone (EGPT) Weather updates coming soon.

Below are some surrounding airfields, alternative you can view our webcam below or contact Perth radio operator who can assist.

Dundee Weather - Distance 12nm Track 086'

[Source: ADDS]
METAR
EGPN 270650Z 25013KT 9999 FEW045 12/07 Q1015 =
EGPN 270700Z 2707/2715 25017KT 9999 FEW040 TEMPO 2707/2715 26020G30KT PROB30 TEMPO 2707/2712 6000 SHRA
TAF
EGPN 270700Z 2707/2715 25017KT 9999 FEW040 TEMPO 2707/2715 26020G30KT PROB30 TEMPO 2707/2712 6000 SHRA =

RAF Leuchars Weather - Distance 17nm Track 103'

[Source: ADDS]
METAR
EGQL 270650Z 28021KT 9999 FEW040 12/05 Q1015 RMK BLU =
EGQL 270431Z 2706/2715 25014KT 9999 FEW030 BECMG 2706/2709 28017KT TEMPO 2707/2715 29020G30KT
TAF
EGQL 270431Z 2706/2715 25014KT 9999 FEW030 BECMG 2706/2709 28017KT TEMPO 2707/2715 29020G30KT =

Edinburgh Weather - Distance 29nm Track 180'

[Source: ADDS]
METAR
EGPH 270650Z 26015KT 9999 SCT028 11/06 Q1017 =
EGPH 270458Z 2706/2806 26012KT 9999 FEW035 BECMG 2706/2708 28018G30KT BECMG 2717/2720 28008KT
TAF
EGPH 270458Z 2706/2806 26012KT 9999 FEW035 BECMG 2706/2708 28018G30KT BECMG 2717/2720 28008KT =

Aberdeen Weather - Distance 60nm Track 040'

[Source: ADDS]
METAR
EGPD 270650Z AUTO 30017KT 9999 SCT026/// SCT037/// //////TCU 10/06 Q1014 TEMPO SHRA =
AMD EGPD 270629Z 2706/2806 27012KT 9999 FEW040 BECMG 2706/2708 31018G28KT TEMPO 2706/2720 6000 SHRA PROB30 TEMPO 2706/2710 4000 +SHRA BECMG 2716/2719 32009KT
TAF
AMD EGPD 270629Z 2706/2806 27012KT 9999 FEW040 BECMG 2706/2708 31018G28KT TEMPO 2706/2720 6000 SHRA PROB30 TEMPO 2706/2710 4000 +SHRA BECMG 2716/2719 32009KT =

Drone Tour of Perth Airport

Watch a full aerial tour of the Perth Airport runways 15/33, 09/27, 03/21. Follow our based Piper PA28-161 Warrior taking you on a tour of Perth Scone Aerodrome. The footage is captured in stunning 4K quality by the DJI Mavic Drone.
Morris Leslie Group Logo
ACS Engineering
Scotland's Charity Air Ambulance Logo
Air Service Training Logo

Get started with your first flight lesson with ACS Flight Training

Copyright 2021. ACS Aviation - Website designed by Xtensive